createdAt,value
2019-01-25T00:02:00.304Z,58.50
2019-01-25T00:04:31.047Z,57.50
2019-01-25T00:07:01.360Z,56.83
2019-01-25T00:09:31.622Z,52.63
2019-01-25T00:12:02.503Z,54.40
2019-01-25T00:14:32.820Z,50.13
2019-01-25T00:17:03.166Z,50.83
2019-01-25T00:19:34.585Z,47.60
2019-01-25T00:22:04.878Z,48.57
2019-01-25T00:24:35.276Z,48.47
2019-01-25T00:27:05.728Z,50.40
2019-01-25T00:29:36.062Z,49.60
2019-01-25T00:32:06.540Z,52.23
2019-01-25T00:34:36.673Z,50.25
2019-01-25T00:37:06.911Z,52.80
2019-01-25T00:39:38.188Z,58.07
2019-01-25T00:42:08.359Z,54.53
2019-01-25T00:44:38.624Z,47.90
2019-01-25T00:47:08.793Z,51.03
2019-01-25T00:49:39.469Z,46.33
2019-01-25T00:52:09.983Z,49.70
2019-01-25T00:54:41.077Z,58.00
2019-01-25T00:57:11.515Z,66.50
2019-01-25T00:59:41.700Z,53.40
2019-01-25T01:02:12.305Z,48.37
2019-01-25T01:04:42.617Z,51.77
2019-01-25T01:07:13.369Z,50.17
2019-01-25T01:09:43.813Z,51.60
2019-01-25T01:12:14.180Z,50.17
2019-01-25T01:14:44.460Z,49.90
2019-01-25T01:17:14.782Z,55.37
2019-01-25T01:19:45.061Z,53.80
2019-01-25T01:22:15.237Z,47.13
2019-01-25T01:24:45.406Z,44.57
2019-01-25T01:27:15.632Z,48.07
2019-01-25T01:29:45.829Z,50.53
2019-01-25T01:32:16.053Z,47.83
2019-01-25T01:34:46.294Z,41.73
2019-01-25T01:37:16.455Z,43.37
2019-01-25T01:39:46.660Z,40.20
2019-01-25T01:42:16.819Z,40.67
2019-01-25T01:44:47.754Z,41.05
2019-01-25T01:47:18.056Z,43.13
2019-01-25T01:49:48.424Z,39.93
2019-01-25T01:52:18.579Z,36.30
2019-01-25T01:54:48.741Z,40.80
2019-01-25T01:57:19.158Z,39.63
2019-01-25T01:59:49.320Z,42.13
2019-01-25T02:02:19.470Z,38.10
2019-01-25T02:04:49.744Z,41.97
2019-01-25T02:07:20.362Z,42.83
2019-01-25T02:09:50.898Z,34.53
2019-01-25T02:12:21.187Z,34.03
2019-01-25T02:14:51.390Z,40.90
2019-01-25T02:17:21.742Z,39.93
2019-01-25T02:19:51.934Z,34.33
2019-01-25T02:22:22.053Z,39.50
2019-01-25T02:24:52.203Z,39.53
2019-01-25T02:27:22.478Z,37.40
2019-01-25T02:29:52.664Z,38.17
2019-01-25T02:32:22.820Z,40.07
2019-01-25T02:34:52.960Z,34.60
2019-01-25T02:37:23.179Z,39.97
2019-01-25T02:39:53.299Z,36.20
2019-01-25T02:42:24.535Z,38.30
2019-01-25T02:44:54.774Z,41.63
2019-01-25T02:47:25.014Z,39.00
2019-01-25T02:49:55.113Z,35.47
2019-01-25T02:52:25.286Z,39.57
2019-01-25T02:54:55.499Z,34.73
2019-01-25T02:57:25.832Z,35.80
2019-01-25T02:59:56.176Z,33.20
2019-01-25T03:02:26.878Z,32.77
2019-01-25T03:04:57.272Z,32.40
2019-01-25T03:07:27.992Z,36.87
2019-01-25T03:09:58.447Z,36.83
2019-01-25T03:12:28.724Z,32.10
2019-01-25T03:14:58.998Z,38.63
2019-01-25T03:17:29.331Z,31.33
2019-01-25T03:19:59.498Z,41.30
2019-01-25T03:22:29.744Z,34.83
2019-01-25T03:25:00.019Z,38.80
2019-01-25T03:27:30.257Z,33.40
2019-01-25T03:30:00.517Z,33.90
2019-01-25T03:32:31.028Z,43.02
2019-01-25T03:35:01.417Z,37.23
2019-01-25T03:37:32.613Z,35.60
2019-01-25T03:40:02.966Z,35.83
2019-01-25T03:42:33.115Z,34.97
2019-01-25T03:45:03.375Z,34.83
2019-01-25T03:47:33.769Z,28.43
2019-01-25T03:50:04.854Z,28.63
2019-01-25T03:52:35.197Z,29.73
2019-01-25T03:55:09.049Z,30.20
2019-01-25T03:57:39.414Z,28.30
2019-01-25T04:00:13.508Z,27.43
2019-01-25T04:02:43.773Z,32.33
2019-01-25T04:05:15.499Z,34.47
2019-01-25T04:07:46.357Z,26.97
2019-01-25T04:10:19.033Z,33.07
2019-01-25T04:12:50.163Z,39.60
2019-01-25T04:15:22.869Z,33.50
2019-01-25T04:17:53.242Z,44.30
2019-01-25T04:20:23.744Z,31.67
2019-01-25T04:22:53.968Z,30.50
2019-01-25T04:25:24.330Z,33.17
2019-01-25T04:27:54.852Z,26.03
2019-01-25T04:30:34.225Z,34.00
2019-01-25T04:33:05.030Z,33.30
2019-01-25T04:35:35.605Z,30.33
2019-01-25T04:38:06.034Z,27.50
2019-01-25T04:40:36.263Z,31.80
2019-01-25T04:43:06.944Z,31.00
2019-01-25T04:45:37.171Z,30.27
2019-01-25T04:48:13.168Z,27.77
2019-01-25T04:50:43.613Z,33.00
2019-01-25T04:53:13.877Z,27.37
2019-01-25T04:55:44.117Z,27.47
2019-01-25T04:58:18.777Z,26.00
2019-01-25T05:00:49.324Z,29.03
2019-01-25T05:03:19.687Z,27.30
2019-01-25T05:05:49.881Z,26.70
2019-01-25T05:08:22.994Z,25.73
2019-01-25T05:10:53.656Z,26.43
2019-01-25T05:13:24.067Z,37.57
2019-01-25T05:15:54.356Z,31.83
2019-01-25T05:18:24.736Z,26.73
2019-01-25T05:20:54.902Z,39.10
2019-01-25T05:23:25.074Z,27.48
2019-01-25T05:25:55.331Z,33.40
2019-01-25T05:28:26.115Z,27.10
2019-01-25T05:31:04.594Z,30.03
2019-01-25T05:33:34.770Z,31.60
2019-01-25T05:36:06.174Z,28.00
2019-01-25T05:38:36.769Z,33.70
2019-01-25T05:41:07.037Z,31.60
2019-01-25T05:43:40.031Z,27.53
2019-01-25T05:46:10.331Z,34.33
2019-01-25T05:48:40.835Z,29.48
2019-01-25T05:51:11.519Z,32.43
2019-01-25T05:53:49.700Z,28.97
2019-01-25T05:56:20.173Z,33.63
2019-01-25T05:58:50.374Z,38.47
2019-01-25T06:01:21.137Z,35.70
2019-01-25T06:03:51.445Z,39.70
2019-01-25T06:06:21.699Z,31.70
2019-01-25T06:08:52.100Z,36.53
2019-01-25T06:11:22.366Z,33.03
2019-01-25T06:13:52.653Z,35.67
2019-01-25T06:16:23.240Z,33.37
2019-01-25T06:18:53.443Z,37.73
2019-01-25T06:21:23.737Z,33.40
2019-01-25T06:23:56.070Z,34.43
2019-01-25T06:26:26.204Z,32.83
2019-01-25T06:28:56.546Z,37.40
2019-01-25T06:31:26.729Z,39.05
2019-01-25T06:33:56.937Z,37.00
2019-01-25T06:36:27.199Z,48.37
2019-01-25T06:38:57.335Z,43.03
2019-01-25T06:41:27.505Z,44.37
2019-01-25T06:43:57.713Z,42.67
2019-01-25T06:46:28.352Z,39.87
2019-01-25T06:49:00.555Z,42.23
2019-01-25T06:59:36.376Z,38.70
2019-01-25T07:02:16.820Z,37.93
2019-01-25T07:04:48.622Z,37.37
2019-01-25T07:07:25.253Z,33.37
2019-01-25T07:09:55.673Z,40.37
2019-01-25T07:12:26.215Z,41.23
2019-01-25T07:14:57.064Z,52.80
2019-01-25T07:17:27.653Z,41.57
2019-01-25T07:19:57.973Z,36.73
2019-01-25T07:22:28.792Z,39.40
2019-01-25T07:24:59.164Z,38.30
2019-01-25T07:27:29.575Z,41.63
2019-01-25T07:29:59.978Z,41.93
2019-01-25T07:32:31.223Z,39.13
2019-01-25T07:35:02.149Z,43.70
2019-01-25T07:37:32.925Z,40.40
2019-01-25T07:40:07.076Z,48.83
2019-01-25T07:42:37.560Z,43.37
2019-01-25T07:45:08.304Z,38.77
2019-01-25T07:47:38.589Z,38.60
2019-01-25T07:50:09.228Z,46.63
2019-01-25T07:52:40.183Z,42.70
2019-01-25T07:55:11.001Z,40.43
2019-01-25T07:57:41.656Z,38.60
2019-01-25T08:00:12.426Z,44.60
2019-01-25T08:02:43.035Z,41.53
2019-01-25T08:05:13.749Z,53.57
2019-01-25T08:07:44.321Z,43.67
2019-01-25T08:10:17.756Z,36.70
2019-01-25T08:12:48.264Z,40.50
2019-01-25T08:15:19.827Z,40.53
2019-01-25T08:17:50.509Z,39.37
2019-01-25T08:20:21.250Z,42.90
2019-01-25T08:22:51.712Z,41.70
2019-01-25T08:25:25.527Z,43.70
2019-01-25T08:27:56.038Z,41.00
2019-01-25T08:30:26.820Z,43.27
2019-01-25T08:32:57.392Z,39.98
2019-01-25T08:35:28.315Z,35.97
2019-01-25T08:37:58.695Z,50.05
2019-01-25T08:40:30.488Z,70.97
2019-01-25T08:43:00.866Z,41.43
2019-01-25T08:45:31.408Z,42.65
2019-01-25T08:48:02.056Z,35.80
2019-01-25T08:50:32.505Z,41.20
2019-01-25T08:53:03.206Z,38.77
2019-01-25T08:55:34.392Z,39.57
2019-01-25T08:58:05.078Z,38.57
2019-01-25T09:00:35.911Z,39.50
2019-01-25T09:03:07.469Z,42.77
2019-01-25T09:05:38.367Z,43.27
2019-01-25T09:08:09.594Z,45.00
2019-01-25T09:10:39.912Z,42.80
2019-01-25T09:13:10.210Z,40.03
2019-01-25T09:15:40.450Z,48.20
2019-01-25T09:18:11.123Z,43.17
2019-01-25T09:20:41.342Z,38.13
2019-01-25T09:23:11.625Z,38.23
2019-01-25T09:25:42.247Z,39.17
2019-01-25T09:28:12.783Z,38.80
2019-01-25T09:30:43.110Z,39.73
2019-01-25T09:33:13.569Z,58.43
2019-01-25T09:35:43.799Z,48.17
2019-01-25T09:38:14.128Z,43.53
2019-01-25T09:40:44.954Z,40.47
2019-01-25T09:43:15.249Z,39.10
2019-01-25T09:45:45.491Z,40.60
2019-01-25T09:48:15.799Z,36.00
2019-01-25T09:50:52.698Z,47.57
2019-01-25T09:53:20.986Z,46.50
2019-01-25T09:55:51.400Z,49.53
2019-01-25T09:58:21.579Z,40.80
2019-01-25T10:00:57.032Z,43.07
2019-01-25T10:03:27.627Z,38.80
2019-01-25T10:05:58.005Z,42.43
2019-01-25T10:08:28.625Z,39.97
2019-01-25T10:10:59.054Z,40.97
2019-01-25T10:13:29.287Z,44.27
2019-01-25T10:15:59.821Z,37.57
2019-01-25T10:18:30.554Z,42.00
2019-01-25T10:21:01.006Z,39.43
2019-01-25T10:23:31.188Z,39.37
2019-01-25T10:26:01.445Z,41.20
2019-01-25T10:28:31.936Z,42.23
2019-01-25T10:31:02.518Z,40.87
2019-01-25T10:33:33.977Z,37.63
2019-01-25T10:36:04.611Z,38.53
2019-01-25T10:38:35.042Z,43.27
2019-01-25T10:41:05.770Z,39.50
2019-01-25T10:43:36.369Z,35.03
2019-01-25T10:46:06.756Z,36.00
2019-01-25T10:48:37.228Z,50.27
2019-01-25T10:51:07.390Z,43.33
2019-01-25T10:53:37.807Z,39.93
2019-01-25T10:56:08.380Z,46.47
2019-01-25T10:58:38.641Z,39.47
2019-01-25T11:01:08.840Z,39.33
2019-01-25T11:03:39.181Z,34.47
2019-01-25T11:06:09.295Z,35.40
2019-01-25T11:08:39.435Z,36.87
2019-01-25T11:11:09.779Z,34.50
2019-01-25T11:13:40.086Z,35.70
2019-01-25T11:16:11.975Z,34.40
2019-01-25T11:18:42.338Z,36.60
2019-01-25T11:21:12.713Z,35.50
2019-01-25T11:23:43.454Z,37.73
2019-01-25T11:26:13.884Z,34.50
2019-01-25T11:28:44.053Z,34.77
2019-01-25T11:31:14.329Z,36.37
2019-01-25T11:33:44.692Z,37.57
2019-01-25T11:36:15.151Z,32.93
2019-01-25T11:38:45.900Z,34.67
2019-01-25T11:41:16.712Z,31.95
2019-01-25T11:43:47.061Z,32.97
2019-01-25T11:46:17.500Z,33.90
2019-01-25T11:48:47.808Z,39.63
2019-01-25T11:51:19.909Z,33.57
2019-01-25T11:53:51.000Z,31.97
2019-01-25T11:56:26.145Z,30.60
2019-01-25T11:58:56.970Z,34.23
2019-01-25T12:01:27.289Z,33.80
2019-01-25T12:03:57.606Z,30.33
2019-01-25T12:06:28.035Z,31.63
2019-01-25T12:08:58.919Z,33.70
2019-01-25T12:11:29.166Z,32.13
2019-01-25T12:13:59.522Z,30.20
2019-01-25T12:16:29.874Z,30.90
2019-01-25T12:19:01.304Z,34.63
2019-01-25T12:21:31.777Z,33.23
2019-01-25T12:24:02.812Z,29.70
2019-01-25T12:26:34.193Z,33.50
2019-01-25T12:29:04.977Z,34.40
2019-01-25T12:31:35.406Z,30.37
2019-01-25T12:34:06.108Z,33.40
2019-01-25T12:36:36.660Z,31.97
2019-01-25T12:39:10.889Z,28.60
2019-01-25T12:41:41.414Z,29.57
2019-01-25T12:44:12.108Z,30.33
2019-01-25T12:46:42.751Z,30.13
2019-01-25T12:49:14.395Z,29.32
2019-01-25T12:51:55.567Z,33.70
2019-01-25T12:54:26.120Z,30.70
2019-01-25T12:56:56.726Z,31.37
2019-01-25T12:59:27.430Z,30.10
2019-01-25T13:01:59.314Z,29.83
2019-01-25T13:04:29.640Z,29.90
2019-01-25T13:07:00.532Z,27.53
2019-01-25T13:09:31.074Z,26.90
2019-01-25T13:12:01.872Z,27.57
2019-01-25T13:14:32.985Z,28.17
2019-01-25T13:17:03.701Z,26.60
2019-01-25T13:19:34.807Z,26.33
2019-01-25T13:22:05.804Z,26.03
2019-01-25T13:24:36.435Z,29.63
2019-01-25T13:27:07.247Z,27.70
2019-01-25T13:29:37.657Z,25.17
2019-01-25T13:32:08.391Z,26.63
2019-01-25T13:34:40.116Z,25.32
2019-01-25T13:37:13.472Z,32.53
2019-01-25T13:39:44.141Z,23.90
2019-01-25T13:42:14.931Z,25.27
2019-01-25T13:44:45.494Z,26.80
2019-01-25T13:47:16.427Z,27.20
2019-01-25T13:49:46.799Z,30.83
2019-01-25T13:52:17.426Z,24.30
2019-01-25T13:54:48.170Z,25.93
2019-01-25T13:57:19.150Z,22.10
2019-01-25T13:59:49.884Z,25.53
2019-01-25T14:02:20.682Z,24.63
2019-01-25T14:04:51.139Z,24.27
2019-01-25T14:07:21.941Z,23.33
2019-01-25T14:09:52.884Z,24.03
2019-01-25T14:12:23.623Z,21.17
2019-01-25T14:14:54.483Z,19.93
2019-01-25T14:17:25.071Z,20.40
2019-01-25T14:19:55.996Z,18.07
2019-01-25T14:22:26.371Z,24.63
2019-01-25T14:24:58.507Z,19.63
2019-01-25T14:27:28.906Z,18.60
2019-01-25T14:29:59.552Z,19.00
2019-01-25T14:32:30.343Z,19.20
2019-01-25T14:35:01.341Z,17.43
2019-01-25T14:37:32.356Z,21.80
2019-01-25T14:40:03.161Z,16.90
2019-01-25T14:42:33.595Z,16.60
2019-01-25T14:45:04.119Z,21.10
2019-01-25T14:47:34.566Z,21.40
2019-01-25T14:50:06.978Z,19.20
2019-01-25T14:52:37.622Z,18.40
2019-01-25T14:55:08.547Z,19.10
2019-01-25T14:57:38.867Z,16.60
2019-01-25T15:00:10.032Z,16.07
2019-01-25T15:02:40.917Z,16.97
2019-01-25T15:05:14.866Z,17.33
2019-01-25T15:07:45.438Z,20.27
2019-01-25T15:10:20.419Z,15.85
2019-01-25T15:12:52.361Z,16.47
2019-01-25T15:15:23.407Z,19.33
2019-01-25T15:17:54.225Z,21.00
2019-01-25T15:20:27.112Z,16.40
2019-01-25T15:22:57.958Z,22.57
2019-01-25T15:25:29.126Z,16.23
2019-01-25T15:27:59.732Z,19.43
2019-01-25T15:30:32.662Z,18.07
2019-01-25T15:33:03.287Z,23.80
2019-01-25T15:35:34.274Z,21.00
2019-01-25T15:38:04.611Z,19.90
2019-01-25T15:40:35.805Z,19.60
2019-01-25T15:43:06.414Z,19.13
2019-01-25T15:45:36.817Z,19.93
2019-01-25T15:48:07.573Z,18.37
2019-01-25T15:50:38.079Z,19.30
2019-01-25T15:53:08.452Z,21.45
2019-01-25T15:55:38.943Z,19.77
2019-01-25T15:58:09.376Z,19.63
2019-01-25T16:00:39.905Z,22.30
2019-01-25T16:03:10.832Z,21.80
2019-01-25T16:05:41.538Z,19.95
2019-01-25T16:08:12.211Z,19.60
2019-01-25T16:10:42.818Z,21.50
2019-01-25T16:13:13.467Z,22.53
2019-01-25T16:15:44.019Z,22.37
2019-01-25T16:18:14.627Z,24.05
2019-01-25T16:20:45.422Z,23.97
2019-01-25T16:23:15.775Z,249.67
2019-01-25T16:25:46.444Z,125.67
2019-01-25T16:28:17.875Z,67.37
2019-01-25T16:30:48.258Z,81.60
2019-01-25T16:33:18.662Z,22.33
2019-01-25T16:35:48.865Z,19.13
2019-01-25T16:38:19.615Z,28.23
2019-01-25T16:40:50.023Z,22.60
2019-01-25T16:43:23.070Z,21.40
2019-01-25T16:45:53.342Z,19.53
2019-01-25T16:48:23.791Z,27.00
2019-01-25T16:50:54.510Z,17.03
2019-01-25T16:53:24.953Z,19.37
2019-01-25T16:55:55.126Z,21.07
2019-01-25T16:58:25.453Z,17.90
2019-01-25T17:00:55.756Z,16.70
2019-01-25T17:03:26.472Z,17.67
2019-01-25T17:05:57.062Z,17.90
2019-01-25T17:08:27.228Z,19.60
2019-01-25T17:10:57.468Z,19.50
2019-01-25T17:13:27.753Z,16.83
2019-01-25T17:15:58.243Z,15.70
2019-01-25T17:18:28.800Z,16.60
2019-01-25T17:20:59.181Z,14.80
2019-01-25T17:23:30.078Z,17.77
2019-01-25T17:26:00.451Z,14.03
2019-01-25T17:28:30.675Z,16.80
2019-01-25T17:31:01.401Z,16.73
2019-01-25T17:33:32.927Z,18.27
2019-01-25T17:36:03.345Z,18.17
2019-01-25T17:38:34.224Z,15.97
2019-01-25T17:41:04.871Z,15.70
2019-01-25T17:43:35.340Z,15.00
2019-01-25T17:46:05.797Z,17.35
2019-01-25T17:48:36.232Z,16.27
2019-01-25T17:51:06.550Z,14.13
2019-01-25T17:53:37.097Z,15.20
2019-01-25T17:56:07.721Z,12.83
2019-01-25T17:58:39.418Z,14.33
2019-01-25T18:01:10.242Z,13.43
2019-01-25T18:03:40.694Z,12.10
2019-01-25T18:06:11.345Z,10.77
2019-01-25T18:08:41.672Z,13.63
2019-01-25T18:11:12.018Z,15.50
2019-01-25T18:13:42.620Z,11.80
2019-01-25T18:16:14.328Z,17.48
2019-01-25T18:18:46.497Z,15.60
2019-01-25T18:21:17.185Z,14.97
2019-01-25T18:23:47.578Z,16.50
2019-01-25T18:26:21.433Z,16.10
2019-01-25T18:29:01.196Z,19.43
2019-01-25T18:31:32.583Z,15.47
2019-01-25T18:34:02.898Z,12.00
2019-01-25T18:36:33.223Z,14.23
2019-01-25T18:39:05.875Z,14.70
2019-01-25T18:41:36.619Z,15.67
2019-01-25T18:44:07.763Z,11.37
2019-01-25T18:46:38.200Z,11.17
2019-01-25T18:49:08.868Z,12.23
2019-01-25T18:51:39.364Z,12.30
2019-01-25T18:54:09.759Z,11.40
2019-01-25T18:56:40.496Z,11.53
2019-01-25T18:59:10.997Z,13.07
2019-01-25T19:01:41.316Z,12.90
2019-01-25T19:04:12.025Z,9.93
2019-01-25T19:06:42.460Z,10.00
2019-01-25T19:09:13.727Z,11.78
2019-01-25T19:11:43.971Z,10.07
2019-01-25T19:14:14.427Z,13.10
2019-01-25T19:16:45.062Z,10.80
2019-01-25T19:19:15.519Z,7.40
2019-01-25T19:21:46.035Z,12.10
2019-01-25T19:24:16.742Z,11.70
2019-01-25T19:26:47.236Z,9.30
2019-01-25T19:29:17.747Z,9.20
2019-01-25T19:31:48.235Z,9.10
2019-01-25T19:34:18.859Z,10.03
2019-01-25T19:36:49.605Z,10.80
2019-01-25T19:39:19.962Z,10.30
2019-01-25T19:41:50.252Z,8.67
2019-01-25T19:44:20.822Z,10.77
2019-01-25T19:46:51.309Z,12.67
2019-01-25T19:49:21.692Z,12.57
2019-01-25T19:51:52.195Z,9.93
2019-01-25T19:54:22.814Z,10.97
2019-01-25T19:56:53.330Z,7.30
2019-01-25T19:59:25.234Z,10.20
2019-01-25T20:01:55.670Z,8.00
2019-01-25T20:04:26.164Z,6.67
2019-01-25T20:06:57.195Z,6.60
2019-01-25T20:09:28.763Z,7.20
2019-01-25T20:11:59.302Z,6.03
2019-01-25T20:14:30.063Z,7.57
2019-01-25T20:17:00.695Z,6.27
2019-01-25T20:19:34.515Z,5.70
2019-01-25T20:22:05.148Z,4.83
2019-01-25T20:24:35.699Z,4.63
2019-01-25T20:27:06.419Z,4.53
2019-01-25T20:29:36.690Z,4.97
2019-01-25T20:32:07.316Z,7.70
2019-01-25T20:34:38.827Z,8.63
2019-01-25T20:37:09.221Z,6.30
2019-01-25T20:39:40.918Z,5.10
2019-01-25T20:42:11.425Z,5.43
2019-01-25T20:44:42.350Z,4.93
2019-01-25T20:47:12.841Z,7.53
2019-01-25T20:49:43.445Z,5.33
2019-01-25T20:52:14.157Z,5.60
2019-01-25T20:54:44.511Z,5.23
2019-01-25T20:57:15.113Z,7.07
2019-01-25T20:59:45.638Z,6.50
2019-01-25T21:02:16.102Z,6.47
2019-01-25T21:04:46.657Z,6.30
2019-01-25T21:07:17.257Z,6.70
2019-01-25T21:09:49.084Z,8.73
2019-01-25T21:12:19.678Z,8.03
2019-01-25T21:14:49.956Z,8.50
2019-01-25T21:17:20.587Z,8.60
2019-01-25T21:19:51.377Z,8.37
2019-01-25T21:22:22.133Z,11.93
2019-01-25T21:24:52.791Z,9.17
2019-01-25T21:27:23.606Z,7.40
2019-01-25T21:29:54.092Z,5.93
2019-01-25T21:32:25.677Z,7.17
2019-01-25T21:34:56.183Z,6.83
2019-01-25T21:37:29.688Z,8.80
2019-01-25T21:40:08.169Z,10.70
2019-01-25T21:42:33.063Z,6.80
2019-01-25T21:45:04.812Z,8.77
2019-01-25T21:47:35.328Z,7.13
2019-01-25T21:50:08.179Z,5.90
2019-01-25T21:52:38.559Z,5.50
2019-01-25T21:55:10.591Z,7.17
2019-01-25T21:57:41.262Z,6.17
2019-01-25T22:00:17.898Z,5.50
2019-01-25T22:02:48.608Z,6.87
2019-01-25T22:05:22.024Z,9.53
2019-01-25T22:07:52.431Z,5.37
2019-01-25T22:10:34.409Z,6.33
2019-01-25T22:13:05.196Z,7.60
2019-01-25T22:15:35.604Z,5.70
2019-01-25T22:18:06.451Z,5.35
2019-01-25T22:20:36.770Z,5.50
2019-01-25T22:23:07.224Z,4.30
2019-01-25T22:25:37.497Z,4.47
2019-01-25T22:28:08.023Z,4.87
2019-01-25T22:30:38.887Z,5.07
2019-01-25T22:33:09.515Z,4.93
2019-01-25T22:35:39.995Z,6.33
2019-01-25T22:38:10.504Z,4.53
2019-01-25T22:40:40.961Z,7.70
2019-01-25T22:43:11.644Z,5.97
2019-01-25T22:45:42.161Z,5.73
2019-01-25T22:48:12.860Z,6.95
2019-01-25T22:50:43.305Z,5.20
2019-01-25T22:53:13.539Z,5.60
2019-01-25T22:55:43.670Z,6.13
2019-01-25T22:58:14.189Z,4.70
2019-01-25T23:01:00.724Z,6.25
2019-01-25T23:03:50.798Z,5.10
2019-01-25T23:06:33.089Z,6.00
2019-01-25T23:09:17.863Z,5.07
2019-01-25T23:11:48.164Z,10.48
2019-01-25T23:14:18.447Z,15.00
2019-01-25T23:16:49.695Z,6.10
2019-01-25T23:19:20.548Z,4.45
2019-01-25T23:21:53.489Z,7.10
2019-01-25T23:24:23.946Z,5.83
2019-01-25T23:26:55.060Z,5.10
2019-01-25T23:29:25.426Z,6.73
2019-01-25T23:31:55.753Z,5.90
2019-01-25T23:34:26.014Z,6.67
2019-01-25T23:36:56.183Z,5.90
2019-01-25T23:39:26.459Z,5.67
2019-01-25T23:41:56.633Z,6.20
2019-01-25T23:44:27.351Z,5.50
2019-01-25T23:46:57.612Z,6.78
2019-01-25T23:49:28.049Z,4.67
2019-01-25T23:51:58.309Z,7.57
2019-01-25T23:54:28.623Z,4.67
2019-01-25T23:56:59.043Z,4.87
2019-01-25T23:59:29.670Z,7.33
